createdAt,value
2018-11-04T00:01:38.228Z,12.14
2018-11-04T00:04:06.835Z,12.12
2018-11-04T00:06:35.136Z,12.14
2018-11-04T00:09:04.301Z,12.13
2018-11-04T00:11:32.728Z,12.14
2018-11-04T00:14:01.045Z,12.11
2018-11-04T00:16:29.360Z,12.12
2018-11-04T00:18:57.637Z,12.10
2018-11-04T00:21:25.953Z,12.13
2018-11-04T00:23:54.361Z,12.13
2018-11-04T00:26:22.997Z,12.12
2018-11-04T00:28:51.482Z,12.10
2018-11-04T00:31:19.914Z,12.11
2018-11-04T00:33:48.169Z,12.09
2018-11-04T00:36:16.466Z,12.12
2018-11-04T00:38:44.770Z,12.13
2018-11-04T00:41:13.109Z,12.12
2018-11-04T00:43:41.473Z,12.13
2018-11-04T00:46:09.872Z,12.09
2018-11-04T00:48:38.605Z,12.07
2018-11-04T00:51:07.111Z,12.05
2018-11-04T00:53:35.445Z,12.08
2018-11-04T00:56:03.805Z,12.07
2018-11-04T00:58:32.142Z,12.05
2018-11-04T01:01:00.462Z,12.07
2018-11-04T01:03:28.983Z,12.09
2018-11-04T01:05:57.368Z,12.09
2018-11-04T01:08:25.695Z,12.08
2018-11-04T01:10:54.006Z,12.06
2018-11-04T01:13:22.313Z,12.06
2018-11-04T01:15:50.684Z,12.05
2018-11-04T01:18:19.026Z,12.02
2018-11-04T01:20:47.534Z,12.04
2018-11-04T01:23:15.922Z,12.01
2018-11-04T01:25:44.291Z,12.00
2018-11-04T01:28:12.605Z,12.06
2018-11-04T01:30:45.034Z,12.07
2018-11-04T01:33:13.321Z,12.10
2018-11-04T01:35:41.675Z,12.12
2018-11-04T01:38:10.082Z,12.12
2018-11-04T01:40:38.396Z,12.08
2018-11-04T01:43:06.733Z,12.04
2018-11-04T01:45:35.092Z,12.06
2018-11-04T01:48:03.382Z,12.05
2018-11-04T01:50:31.733Z,11.97
2018-11-04T01:53:00.050Z,12.03
2018-11-04T01:55:28.565Z,12.06
2018-11-04T01:57:56.871Z,12.07
2018-11-04T02:00:25.213Z,12.10
2018-11-04T02:02:53.725Z,12.07
2018-11-04T02:05:22.038Z,12.12
2018-11-04T02:07:50.372Z,12.07
2018-11-04T02:10:18.707Z,12.09
2018-11-04T02:12:47.123Z,12.08
2018-11-04T02:15:15.408Z,12.10
2018-11-04T02:17:43.909Z,12.07
2018-11-04T02:20:13.374Z,12.07
2018-11-04T02:22:42.128Z,12.06
2018-11-04T02:25:11.758Z,12.05
2018-11-04T02:27:40.422Z,11.99
2018-11-04T02:30:11.233Z,12.06
2018-11-04T02:32:39.670Z,12.02
2018-11-04T02:35:08.152Z,11.97
2018-11-04T02:37:36.769Z,11.97
2018-11-04T02:40:05.539Z,12.01
2018-11-04T02:42:33.954Z,12.05
2018-11-04T02:45:02.286Z,12.01
2018-11-04T02:47:30.641Z,12.02
2018-11-04T02:49:58.971Z,12.01
2018-11-04T02:52:27.422Z,11.99
2018-11-04T02:54:55.764Z,12.01
2018-11-04T02:57:24.224Z,12.00
2018-11-04T02:59:52.623Z,11.96
2018-11-04T03:02:20.950Z,11.92
2018-11-04T03:04:49.321Z,11.95
2018-11-04T03:07:17.719Z,11.94
2018-11-04T03:09:46.046Z,11.94
2018-11-04T03:12:14.372Z,11.94
2018-11-04T03:14:42.989Z,11.96
2018-11-04T03:17:11.325Z,11.96
2018-11-04T03:19:39.744Z,11.97
2018-11-04T03:22:08.089Z,11.99
2018-11-04T03:24:36.431Z,11.95
2018-11-04T03:27:04.991Z,11.95
2018-11-04T03:30:37.070Z,11.96
2018-11-04T03:33:05.853Z,11.94
2018-11-04T03:35:34.256Z,11.92
2018-11-04T03:38:02.565Z,11.91
2018-11-04T03:40:31.015Z,11.94
2018-11-04T03:42:59.354Z,11.94
2018-11-04T03:45:27.702Z,11.94
2018-11-04T03:47:56.132Z,11.89
2018-11-04T03:50:24.422Z,11.84
2018-11-04T03:52:52.732Z,11.91
2018-11-04T03:55:21.188Z,11.89
2018-11-04T03:57:49.483Z,11.91
2018-11-04T04:00:17.979Z,11.96
2018-11-04T04:02:46.304Z,11.90
2018-11-04T04:05:14.713Z,11.94
2018-11-04T04:07:43.091Z,11.89
2018-11-04T04:10:11.669Z,11.93
2018-11-04T04:12:40.038Z,11.95
2018-11-04T04:15:09.564Z,11.97
2018-11-04T04:17:37.905Z,11.98
2018-11-04T04:20:06.747Z,11.97
2018-11-04T04:22:35.291Z,11.99
2018-11-04T04:25:03.680Z,11.96
2018-11-04T04:27:31.981Z,11.94
2018-11-04T04:30:00.478Z,11.87
2018-11-04T04:32:28.827Z,11.91
2018-11-04T04:34:57.275Z,11.91
2018-11-04T04:37:25.680Z,11.96
2018-11-04T04:39:53.977Z,11.92
2018-11-04T04:42:22.269Z,11.95
2018-11-04T04:44:50.690Z,11.91
2018-11-04T04:47:19.072Z,11.91
2018-11-04T04:49:47.404Z,11.92
2018-11-04T04:52:15.722Z,11.90
2018-11-04T04:54:44.299Z,11.92
2018-11-04T04:57:12.634Z,11.89
2018-11-04T04:59:40.941Z,11.89
2018-11-04T05:02:09.483Z,11.87
2018-11-04T05:04:37.817Z,11.86
2018-11-04T05:07:06.153Z,11.84
2018-11-04T05:09:34.536Z,11.87
2018-11-04T05:12:02.910Z,11.85
2018-11-04T05:14:31.398Z,11.85
2018-11-04T05:17:00.129Z,11.85
2018-11-04T05:19:28.463Z,11.86
2018-11-04T05:21:56.760Z,11.87
2018-11-04T05:24:25.081Z,11.85
2018-11-04T05:26:53.487Z,11.86
2018-11-04T05:29:21.976Z,11.90
2018-11-04T05:31:50.274Z,11.85
2018-11-04T05:34:18.758Z,11.88
2018-11-04T05:36:47.123Z,11.85
2018-11-04T05:39:15.434Z,11.85
2018-11-04T05:41:43.798Z,11.86
2018-11-04T05:44:12.144Z,11.83
2018-11-04T05:46:40.431Z,11.84
2018-11-04T05:49:08.895Z,11.86
2018-11-04T05:51:37.253Z,11.89
2018-11-04T05:54:05.891Z,11.83
2018-11-04T05:56:34.233Z,11.90
2018-11-04T05:59:02.543Z,11.88
2018-11-04T06:01:30.922Z,11.86
2018-11-04T06:03:59.277Z,11.93
2018-11-04T06:06:27.605Z,11.86
2018-11-04T06:08:55.975Z,11.89
2018-11-04T06:11:24.266Z,11.90
2018-11-04T06:13:52.569Z,11.92
2018-11-04T06:16:20.850Z,11.93
2018-11-04T06:18:49.166Z,11.93
2018-11-04T06:21:17.503Z,11.94
2018-11-04T06:23:45.849Z,11.96
2018-11-04T06:26:14.194Z,11.97
2018-11-04T06:28:42.576Z,12.00
2018-11-04T06:31:10.997Z,12.01
2018-11-04T06:33:39.420Z,12.01
2018-11-04T06:36:07.765Z,12.01
2018-11-04T06:38:36.262Z,12.09
2018-11-04T06:41:04.576Z,12.00
2018-11-04T06:43:32.973Z,12.05
2018-11-04T06:46:01.368Z,11.96
2018-11-04T06:48:29.674Z,12.02
2018-11-04T06:50:58.477Z,12.03
2018-11-04T06:53:29.594Z,12.03
2018-11-04T06:55:58.042Z,12.01
2018-11-04T06:58:26.431Z,12.04
2018-11-04T07:00:54.982Z,12.12
2018-11-04T07:03:23.433Z,12.12
2018-11-04T07:05:51.944Z,12.15
2018-11-04T07:08:20.415Z,12.14
2018-11-04T07:10:48.923Z,12.18
2018-11-04T07:13:18.774Z,12.23
2018-11-04T07:15:47.335Z,12.23
2018-11-04T07:18:15.826Z,12.26
2018-11-04T07:20:44.338Z,12.26
2018-11-04T07:23:36.416Z,12.30
2018-11-04T07:26:05.170Z,12.28
2018-11-04T07:28:34.016Z,12.33
2018-11-04T07:31:02.866Z,12.39
2018-11-04T07:33:31.485Z,12.42
2018-11-04T07:35:59.833Z,12.34
2018-11-04T07:38:28.114Z,12.39
2018-11-04T07:40:57.436Z,12.29
2018-11-04T07:43:25.893Z,12.36
2018-11-04T07:45:54.271Z,12.27
2018-11-04T07:48:22.652Z,12.31
2018-11-04T07:50:51.092Z,12.39
2018-11-04T07:53:19.416Z,12.44
2018-11-04T07:55:47.722Z,12.46
2018-11-04T07:58:16.058Z,12.50
2018-11-04T08:00:45.121Z,12.56
2018-11-04T08:03:13.470Z,12.57
2018-11-04T08:05:41.769Z,12.60
2018-11-04T08:08:13.061Z,12.70
2018-11-04T08:10:41.413Z,12.53
2018-11-04T08:13:11.050Z,12.66
2018-11-04T08:15:39.745Z,12.65
2018-11-04T08:18:08.199Z,12.75
2018-11-04T08:20:36.515Z,12.75
2018-11-04T08:23:04.990Z,12.76
2018-11-04T08:25:33.620Z,12.72
2018-11-04T08:28:01.990Z,12.73
2018-11-04T08:30:30.257Z,12.63
2018-11-04T08:32:58.561Z,12.66
2018-11-04T08:35:26.989Z,12.74
2018-11-04T08:37:55.271Z,12.77
2018-11-04T08:40:23.768Z,12.78
2018-11-04T08:42:55.839Z,12.75
2018-11-04T08:45:24.639Z,12.83
2018-11-04T08:47:53.652Z,12.84
2018-11-04T08:50:22.085Z,12.88
2018-11-04T08:52:51.032Z,12.87
2018-11-04T08:55:19.429Z,12.99
2018-11-04T08:57:48.532Z,12.99
2018-11-04T09:00:21.086Z,12.93
2018-11-04T09:02:51.002Z,12.92
2018-11-04T09:05:25.447Z,13.04
2018-11-04T09:08:04.060Z,13.17
2018-11-04T09:10:37.131Z,13.29
2018-11-04T09:13:12.083Z,13.35
2018-11-04T09:15:56.342Z,13.53
2018-11-04T09:18:25.846Z,13.66
2018-11-04T09:20:55.510Z,13.73
2018-11-04T09:23:24.444Z,13.76
2018-11-04T09:25:53.345Z,13.68
2018-11-04T09:28:22.138Z,13.74
2018-11-04T09:30:51.936Z,13.72
2018-11-04T09:33:20.731Z,13.71
2018-11-04T09:35:49.501Z,13.67
2018-11-04T09:38:18.618Z,13.61
2018-11-04T09:40:46.976Z,13.48
2018-11-04T09:43:16.002Z,13.48
2018-11-04T09:45:44.925Z,13.57
2018-11-04T09:48:13.413Z,13.66
2018-11-04T09:50:41.979Z,13.80
2018-11-04T09:53:11.062Z,14.04
2018-11-04T09:55:40.338Z,14.10
2018-11-04T09:58:09.224Z,14.07
2018-11-04T10:00:37.606Z,14.17
2018-11-04T10:03:07.109Z,14.17
2018-11-04T10:05:37.036Z,14.13
2018-11-04T10:08:05.799Z,14.12
2018-11-04T10:10:35.404Z,14.19
2018-11-04T10:13:04.930Z,14.28
2018-11-04T10:15:33.520Z,14.26
2018-11-04T10:18:04.422Z,14.17
2018-11-04T10:20:33.105Z,14.17
2018-11-04T10:23:01.173Z,13.94
2018-11-04T10:25:29.885Z,13.86
2018-11-04T10:27:59.389Z,13.95
2018-11-04T10:30:27.880Z,14.03
2018-11-04T10:32:56.937Z,14.04
2018-11-04T10:35:26.041Z,14.12
2018-11-04T10:37:54.735Z,13.95
2018-11-04T10:40:23.066Z,13.85
2018-11-04T10:42:51.905Z,13.99
2018-11-04T10:45:20.495Z,13.80
2018-11-04T10:47:48.831Z,13.90
2018-11-04T10:50:17.369Z,13.79
2018-11-04T10:52:47.545Z,13.63
2018-11-04T10:55:16.040Z,13.67
2018-11-04T10:57:45.273Z,13.60
2018-11-04T11:00:19.597Z,13.59
2018-11-04T11:02:47.932Z,13.61
2018-11-04T11:05:16.493Z,13.57
2018-11-04T11:07:47.426Z,13.61
2018-11-04T11:10:15.905Z,13.61
2018-11-04T11:12:44.255Z,13.59
2018-11-04T11:15:13.425Z,13.69
2018-11-04T11:17:41.980Z,13.64
2018-11-04T11:20:12.340Z,13.89
2018-11-04T11:22:41.153Z,14.06
2018-11-04T11:25:10.493Z,14.15
2018-11-04T11:27:39.013Z,14.17
2018-11-04T11:30:07.784Z,14.01
2018-11-04T11:32:36.185Z,14.00
2018-11-04T11:35:04.718Z,14.09
2018-11-04T11:37:33.280Z,14.09
2018-11-04T11:40:01.514Z,14.27
2018-11-04T11:42:30.177Z,14.38
2018-11-04T11:44:58.683Z,14.45
2018-11-04T11:47:26.941Z,14.49
2018-11-04T11:49:55.307Z,14.49
2018-11-04T11:52:24.183Z,14.41
2018-11-04T11:54:52.714Z,14.22
2018-11-04T11:57:21.348Z,14.19
2018-11-04T11:59:49.834Z,14.06
2018-11-04T12:02:18.278Z,14.10
2018-11-04T12:04:46.630Z,14.20
2018-11-04T12:07:15.205Z,14.23
2018-11-04T12:09:43.885Z,14.28
2018-11-04T12:12:12.267Z,14.31
2018-11-04T12:14:40.852Z,14.46
2018-11-04T12:17:09.266Z,14.28
2018-11-04T12:19:37.653Z,14.46
2018-11-04T12:22:06.112Z,14.61
2018-11-04T12:24:34.456Z,14.63
2018-11-04T12:27:02.775Z,14.61
2018-11-04T12:29:31.122Z,14.50
2018-11-04T12:31:59.433Z,14.50
2018-11-04T12:34:27.880Z,14.62
2018-11-04T12:36:56.230Z,14.64
2018-11-04T12:39:24.541Z,14.51
2018-11-04T12:41:52.820Z,14.33
2018-11-04T12:44:21.690Z,14.51
2018-11-04T12:46:50.020Z,14.68
2018-11-04T12:49:18.323Z,14.76
2018-11-04T12:51:46.718Z,14.83
2018-11-04T12:54:15.922Z,14.86
2018-11-04T12:56:44.256Z,14.98
2018-11-04T12:59:12.573Z,14.95
2018-11-04T13:01:40.892Z,15.01
2018-11-04T13:04:09.500Z,15.07
2018-11-04T13:06:37.832Z,15.05
2018-11-04T13:09:08.169Z,14.94
2018-11-04T13:11:37.325Z,15.01
2018-11-04T13:14:06.465Z,15.03
2018-11-04T13:16:35.040Z,15.07
2018-11-04T13:19:03.404Z,15.03
2018-11-04T13:21:32.038Z,15.00
2018-11-04T13:24:00.360Z,15.12
2018-11-04T13:26:28.872Z,15.05
2018-11-04T13:28:57.390Z,15.04
2018-11-04T13:31:25.885Z,15.06
2018-11-04T13:33:54.397Z,15.08
2018-11-04T13:36:22.887Z,14.96
2018-11-04T13:38:51.523Z,15.01
2018-11-04T13:41:19.864Z,14.94
2018-11-04T13:43:48.190Z,14.94
2018-11-04T13:46:16.536Z,14.98
2018-11-04T13:48:44.906Z,14.99
2018-11-04T13:51:13.219Z,15.00
2018-11-04T13:53:41.610Z,14.85
2018-11-04T13:56:10.227Z,14.81
2018-11-04T13:58:39.372Z,14.63
2018-11-04T14:01:07.733Z,14.57
2018-11-04T14:03:37.129Z,14.58
2018-11-04T14:06:05.460Z,14.46
2018-11-04T14:08:34.359Z,14.35
2018-11-04T14:11:02.760Z,14.25
2018-11-04T14:13:31.353Z,14.20
2018-11-04T14:15:59.582Z,14.09
2018-11-04T14:18:27.994Z,14.01
2018-11-04T14:20:56.395Z,14.01
2018-11-04T14:23:24.956Z,13.92
2018-11-04T14:25:53.312Z,13.82
2018-11-04T14:28:21.718Z,13.81
2018-11-04T14:30:50.041Z,13.82
2018-11-04T14:33:18.598Z,13.77
2018-11-04T14:35:49.825Z,13.81
2018-11-04T14:38:23.357Z,13.80
2018-11-04T14:43:51.954Z,13.64
2018-11-04T14:52:19.672Z,13.59
2018-11-04T14:54:48.088Z,13.52
2018-11-04T14:57:22.082Z,13.42
2018-11-04T14:59:51.174Z,13.37
2018-11-04T15:02:19.788Z,13.38
2018-11-04T15:04:48.401Z,13.40
2018-11-04T15:07:20.517Z,13.38
2018-11-04T15:15:53.255Z,13.24
2018-11-04T15:18:21.868Z,13.22
2018-11-04T15:20:50.243Z,13.10
2018-11-04T15:23:30.665Z,13.09
2018-11-04T15:31:45.908Z,13.01
2018-11-04T15:37:09.508Z,13.08
2018-11-04T15:39:40.459Z,13.09
2018-11-04T15:42:09.873Z,13.11
2018-11-04T15:44:39.485Z,13.04
2018-11-04T15:47:18.947Z,12.92
2018-11-04T15:49:48.165Z,12.81
2018-11-04T15:52:18.376Z,12.76
2018-11-04T15:54:59.887Z,12.74
2018-11-04T15:57:33.790Z,12.68
2018-11-04T16:00:04.193Z,12.70
2018-11-04T16:05:54.379Z,12.67
2018-11-04T16:08:22.733Z,12.65
2018-11-04T16:10:51.149Z,12.61
2018-11-04T16:13:19.647Z,12.65
2018-11-04T16:15:48.153Z,12.62
2018-11-04T16:18:16.585Z,12.62
2018-11-04T16:20:45.247Z,12.64
2018-11-04T16:23:13.762Z,12.65
2018-11-04T16:25:42.486Z,12.66
2018-11-04T16:28:10.917Z,12.67
2018-11-04T16:30:41.741Z,12.68
2018-11-04T16:33:10.787Z,12.65
2018-11-04T16:35:39.464Z,12.63
2018-11-04T16:38:08.030Z,12.67
2018-11-04T16:40:36.384Z,12.65
2018-11-04T16:43:04.725Z,12.67
2018-11-04T16:45:33.062Z,12.62
2018-11-04T16:48:01.543Z,12.65
2018-11-04T16:50:30.157Z,12.70
2018-11-04T16:52:58.605Z,12.71
2018-11-04T16:55:26.931Z,12.67
2018-11-04T16:57:55.636Z,12.64
2018-11-04T17:00:23.976Z,12.69
2018-11-04T17:02:52.349Z,12.67
2018-11-04T17:05:20.879Z,12.64
2018-11-04T17:07:49.317Z,12.61
2018-11-04T17:10:17.692Z,12.63
2018-11-04T17:12:45.968Z,12.60
2018-11-04T17:15:15.354Z,12.58
2018-11-04T17:17:43.982Z,12.57
2018-11-04T17:20:14.322Z,12.64
2018-11-04T17:22:43.226Z,12.56
2018-11-04T17:25:12.042Z,12.56
2018-11-04T17:27:40.618Z,12.60
2018-11-04T17:30:14.609Z,12.52
2018-11-04T17:32:43.188Z,12.49
2018-11-04T17:35:13.204Z,12.47
2018-11-04T17:37:42.204Z,12.48
2018-11-04T17:40:11.623Z,12.50
2018-11-04T17:42:39.900Z,12.48
2018-11-04T17:45:10.012Z,12.48
2018-11-04T17:47:38.948Z,12.48
2018-11-04T17:50:09.787Z,12.41
2018-11-04T17:52:38.156Z,12.41
2018-11-04T17:55:06.575Z,12.47
2018-11-04T17:57:34.964Z,12.40
2018-11-04T18:00:03.352Z,12.40
2018-11-04T18:02:31.672Z,12.40
2018-11-04T18:04:59.977Z,12.43
2018-11-04T18:07:28.371Z,12.45
2018-11-04T18:09:56.824Z,12.42
2018-11-04T18:12:25.092Z,12.42
2018-11-04T18:14:53.425Z,12.41
2018-11-04T18:17:21.796Z,12.42
2018-11-04T18:19:50.175Z,12.42
2018-11-04T18:22:18.630Z,12.42
2018-11-04T18:24:46.896Z,12.45
2018-11-04T18:27:15.694Z,12.41
2018-11-04T18:29:43.984Z,12.39
2018-11-04T18:32:12.417Z,12.39
2018-11-04T18:34:40.665Z,12.32
2018-11-04T18:37:09.090Z,12.33
2018-11-04T18:39:37.367Z,12.38
2018-11-04T18:42:05.991Z,12.34
2018-11-04T18:44:34.493Z,12.32
2018-11-04T18:47:02.744Z,12.29
2018-11-04T18:49:31.199Z,12.29
2018-11-04T18:51:59.819Z,12.29
2018-11-04T18:54:28.458Z,12.34
2018-11-04T18:56:56.778Z,12.30
2018-11-04T18:59:25.786Z,12.31
2018-11-04T19:01:54.137Z,12.32
2018-11-04T19:04:22.563Z,12.28
2018-11-04T19:06:51.080Z,12.29
2018-11-04T19:09:19.463Z,12.34
2018-11-04T19:11:47.827Z,12.23
2018-11-04T19:14:16.110Z,12.27
2018-11-04T19:16:45.808Z,12.27
2018-11-04T19:19:14.221Z,12.27
2018-11-04T19:21:42.671Z,12.24
2018-11-04T19:24:11.021Z,12.27
2018-11-04T19:26:40.052Z,12.24
2018-11-04T19:29:08.717Z,12.21
2018-11-04T19:31:36.976Z,12.21
2018-11-04T19:34:05.436Z,12.24
2018-11-04T19:36:33.734Z,12.27
2018-11-04T19:39:02.109Z,12.26
2018-11-04T19:41:30.493Z,12.21
2018-11-04T19:43:58.932Z,12.13
2018-11-04T19:46:27.282Z,12.14
2018-11-04T19:48:55.567Z,12.20
2018-11-04T19:51:24.133Z,12.25
2018-11-04T19:53:52.420Z,12.21
2018-11-04T19:56:21.724Z,12.18
2018-11-04T19:58:50.077Z,12.15
2018-11-04T20:01:18.672Z,12.19
2018-11-04T20:03:47.083Z,12.19
2018-11-04T20:06:15.452Z,12.19
2018-11-04T20:08:48.853Z,12.22
2018-11-04T20:11:17.335Z,12.23
2018-11-04T20:13:50.899Z,12.20
2018-11-04T20:16:20.018Z,12.17
2018-11-04T20:18:53.637Z,12.20
2018-11-04T20:21:21.900Z,12.22
2018-11-04T20:23:50.614Z,12.21
2018-11-04T20:26:18.932Z,12.20
2018-11-04T20:28:48.523Z,12.20
2018-11-04T20:31:22.210Z,12.19
2018-11-04T20:33:50.637Z,12.15
2018-11-04T20:36:19.089Z,12.22
2018-11-04T20:38:52.708Z,12.22
2018-11-04T20:41:28.424Z,12.23
2018-11-04T20:43:56.864Z,12.16
2018-11-04T20:46:25.137Z,12.14
2018-11-04T20:48:58.872Z,12.17
2018-11-04T20:51:27.228Z,12.13
2018-11-04T20:53:55.993Z,12.12
2018-11-04T20:56:30.202Z,12.10
2018-11-04T20:58:58.669Z,12.14
2018-11-04T21:01:27.259Z,12.17
2018-11-04T21:03:55.826Z,12.19
2018-11-04T21:06:24.171Z,12.18
2018-11-04T21:08:52.614Z,12.19
2018-11-04T21:11:21.360Z,12.25
2018-11-04T21:13:49.635Z,12.21
2018-11-04T21:16:18.247Z,12.19
2018-11-04T21:18:46.504Z,12.20
2018-11-04T21:21:14.944Z,12.18
2018-11-04T21:23:45.596Z,12.15
2018-11-04T21:26:13.864Z,12.13
2018-11-04T21:28:42.327Z,12.09
2018-11-04T21:31:10.939Z,12.13
2018-11-04T21:33:39.438Z,12.11
2018-11-04T21:36:07.898Z,12.12
2018-11-04T21:38:36.404Z,12.12
2018-11-04T21:41:04.808Z,12.10
2018-11-04T21:43:33.215Z,12.02
2018-11-04T21:46:01.626Z,12.06
2018-11-04T21:48:29.938Z,12.02
2018-11-04T21:50:58.371Z,12.06
2018-11-04T21:53:27.117Z,12.04
2018-11-04T21:55:55.544Z,12.05
2018-11-04T21:58:23.755Z,11.95
2018-11-04T22:00:52.215Z,11.92
2018-11-04T22:03:20.846Z,11.93
2018-11-04T22:05:49.182Z,11.96
2018-11-04T22:08:18.132Z,11.94
2018-11-04T22:10:46.468Z,11.93
2018-11-04T22:13:14.834Z,11.96
2018-11-04T22:15:43.319Z,11.92
2018-11-04T22:18:11.757Z,11.83
2018-11-04T22:20:40.216Z,11.85
2018-11-04T22:23:08.638Z,11.81
2018-11-04T22:25:36.898Z,11.73
2018-11-04T22:28:05.326Z,11.70
2018-11-04T22:30:34.644Z,11.68
2018-11-04T22:33:03.058Z,11.55
2018-11-04T22:35:31.372Z,11.65
2018-11-04T22:37:59.645Z,11.64
2018-11-04T22:40:28.015Z,11.70
2018-11-04T22:42:56.305Z,11.71
2018-11-04T22:45:24.812Z,11.76
2018-11-04T22:47:53.195Z,11.75
2018-11-04T22:50:21.500Z,11.71
2018-11-04T22:52:49.782Z,11.74
2018-11-04T22:55:18.044Z,11.75
2018-11-04T22:57:46.466Z,11.75
2018-11-04T23:00:20.250Z,11.78
2018-11-04T23:02:49.691Z,11.81
2018-11-04T23:05:23.966Z,11.76
2018-11-04T23:07:52.703Z,11.81
2018-11-04T23:10:21.401Z,11.79
2018-11-04T23:12:49.846Z,11.78
2018-11-04T23:15:18.117Z,11.78
2018-11-04T23:17:46.497Z,11.77
2018-11-04T23:20:15.113Z,11.72
2018-11-04T23:22:44.326Z,11.61
2018-11-04T23:25:13.766Z,11.49
2018-11-04T23:27:42.850Z,11.38
2018-11-04T23:30:13.603Z,11.32
2018-11-04T23:32:43.393Z,11.24
2018-11-04T23:35:12.300Z,11.18
2018-11-04T23:37:41.085Z,11.10
2018-11-04T23:40:10.009Z,11.05
2018-11-04T23:42:38.272Z,10.97
2018-11-04T23:45:07.545Z,10.96
2018-11-04T23:47:35.837Z,10.89
2018-11-04T23:50:04.591Z,10.83
2018-11-04T23:52:32.902Z,10.82
2018-11-04T23:55:01.176Z,10.77
2018-11-04T23:57:29.448Z,10.71
2018-11-04T23:59:57.741Z,10.64
